Bookmark and Share
Track history (hours):
 

Mpi Rosinante

Last reported at 2014-Apr-19 13:33 UTC. Time now 2014-Apr-19 19:48 UTC.
Position N 51°14' E 002°55'.

Length 15 m; draft 1.1 m.

Type: Ship. MMSI: 235074636.

NotesDate/timePositionNaut miles runAvg speedWind from/ knotsBaromVisibWave heightAir tempDewpointWater temp
2014-Apr-19 13:33N 51°14' E 002°55'0 0.0
2014-Apr-19 12:34N 51°14' E 002°55'0 0.0
2014-Apr-19 11:33N 51°14' E 002°55'0 0.0
2014-Apr-19 10:33N 51°14' E 002°55'0 0.0
2014-Apr-19 09:33N 51°14' E 002°55'0 0.0
2014-Apr-19 08:33N 51°14' E 002°55'0 0.0
2014-Apr-19 07:33N 51°14' E 002°55'0 0.0
2014-Apr-19 06:33N 51°14' E 002°55'0 0.0
2014-Apr-18 16:12N 51°14' E 002°55'0 0.0
2014-Apr-18 15:33N 51°14' E 002°55'0 0.0
2014-Apr-18 14:33N 51°14' E 002°55'0 0.0
2014-Apr-18 13:34N 51°14' E 002°55'0 0.0
2014-Apr-18 12:34N 51°14' E 002°55'0 0.0
2014-Apr-18 11:34N 51°14' E 002°55'0 0.0
2014-Apr-18 10:34N 51°14' E 002°55'0 0.0
2014-Apr-18 09:34N 51°14' E 002°55'0 0.4
2014-Apr-18 08:34N 51°14' E 002°56'0 0.4
2014-Apr-18 07:33N 51°14' E 002°55'0 0.0
2014-Apr-18 06:33N 51°14' E 002°55'0 0.0
2014-Apr-17 17:13N 51°14' E 002°55'0 0.5
2014-Apr-17 16:33N 51°14' E 002°56'1615.7
2014-Apr-17 15:33N 51°29' E 002°53'10 9.8
2014-Apr-17 14:33N 51°39' E 002°55'1 1.3
2014-Apr-17 13:30N 51°40' E 002°57'2 2.0
2014-Apr-17 12:31N 51°39' E 002°54'1 0.7
2014-Apr-17 10:29N 51°38' E 002°53'1 1.2
2014-Apr-17 09:32N 51°39' E 002°54'1 0.8
2014-Apr-17 08:32N 51°39' E 002°55'1 0.8
2014-Apr-17 07:14N 51°38' E 002°56'1116.3
2014-Apr-17 06:33N 51°27' E 002°53'1413.5
2014-Apr-17 05:33N 51°14' E 002°56'0 0.4
2014-Apr-17 04:33N 51°14' E 002°55'0 0.0
2014-Apr-16 16:33N 51°14' E 002°55'1212.2
2014-Apr-16 15:33N 51°26' E 002°53'1212.0
2014-Apr-16 14:33N 51°38' E 002°56'1 0.2
2014-Apr-16 12:19N 51°38' E 002°56'0 0.2
2014-Apr-16 11:12N 51°38' E 002°56'0 0.0
2014-Apr-16 10:30N 51°38' E 002°56'0 0.0
2014-Apr-16 09:16N 51°38' E 002°56'0 0.1
2014-Apr-16 08:33N 51°38' E 002°56'1 0.8
2014-Apr-16 07:33N 51°39' E 002°55'1312.9
2014-Apr-16 06:33N 51°26' E 002°53'1212.5
2014-Apr-16 05:33N 51°14' E 002°56'0 0.0
2014-Apr-16 04:34N 51°14' E 002°56'0 0.0
2014-Apr-15 11:34N 51°14' E 002°55'0 0.0
2014-Apr-15 10:34N 51°14' E 002°55'0 0.0
2014-Apr-15 09:34N 51°14' E 002°55'0 0.4
2014-Apr-15 08:34N 51°14' E 002°56'0 0.0
2014-Apr-14 11:34N 51°14' E 002°55'0 0.0
2014-Apr-14 10:33N 51°14' E 002°55'0 0.5
2014-Apr-14 09:34N 51°14' E 002°56'0 0.0
2014-Apr-14 08:33N 51°14' E 002°56'0 0.0
2014-Apr-14 07:33N 51°14' E 002°56'0 0.0
2014-Apr-13 16:33N 51°14' E 002°55'9 9.4
2014-Apr-13 15:33N 51°23' E 002°54'15 7.4
2014-Apr-13 13:28N 51°39' E 002°55'2 1.0
2014-Apr-13 11:24N 51°37' E 002°57'1 0.4
2014-Apr-13 09:15N 51°38' E 002°56'1 0.4
2014-Apr-13 07:09N 51°38' E 002°55'1016.3
2014-Apr-13 06:33N 51°28' E 002°53'1514.7
2014-Apr-13 05:34N 51°14' E 002°56'0 0.4
2014-Apr-13 04:34N 51°14' E 002°55'0 0.0
2014-Apr-12 16:24N 51°14' E 002°55'5 5.9
2014-Apr-12 15:33N 51°19' E 002°54'1817.7
2014-Apr-12 14:33N 51°37' E 002°54'2 1.8
2014-Apr-12 13:32N 51°38' E 002°56'0 0.0
2014-Apr-12 12:31N 51°38' E 002°56'0 0.0
2014-Apr-12 11:32N 51°38' E 002°56'0 0.2
2014-Apr-12 09:31N 51°38' E 002°56'0 0.5
2014-Apr-12 08:33N 51°39' E 002°55'1 0.5
2014-Apr-12 07:30N 51°38' E 002°56'7 7.7
2014-Apr-12 06:33N 51°31' E 002°53'1717.3
2014-Apr-12 05:33N 51°14' E 002°56'0 0.2
2014-Apr-12 04:33N 51°14' E 002°55'0 0.0
2014-Apr-11 17:17N 51°14' E 002°55'0 0.5
2014-Apr-11 16:33N 51°14' E 002°56'10 9.7
2014-Apr-11 15:33N 51°23' E 002°53'1615.2
2014-Apr-11 14:32N 51°39' E 002°55'0 0.5
2014-Apr-11 13:33N 51°39' E 002°55'0 0.4
2014-Apr-11 12:33N 51°38' E 002°56'0 0.0
2014-Apr-11 11:33N 51°38' E 002°56'0 0.0
2014-Apr-11 10:32N 51°38' E 002°56'0 0.0
2014-Apr-11 09:33N 51°38' E 002°56'0 0.2
2014-Apr-11 08:30N 51°38' E 002°56'0 0.1
2014-Apr-11 07:33N 51°38' E 002°56'5 4.8
2014-Apr-11 06:33N 51°33' E 002°53'1818.5
2014-Apr-11 05:34N 51°15' E 002°55'1 1.3
2014-Apr-11 04:34N 51°14' E 002°55'0 0.0
2014-Apr-10 16:33N 51°14' E 002°55'6 6.5
2014-Apr-10 15:33N 51°20' E 002°54'1818.4
2014-Apr-10 14:33N 51°39' E 002°55'1 0.8
2014-Apr-10 13:33N 51°38' E 002°56'0 0.0
2014-Apr-10 12:31N 51°38' E 002°56'1 0.8
2014-Apr-10 11:33N 51°39' E 002°55'1 0.8
2014-Apr-10 10:32N 51°38' E 002°56'0 0.0
2014-Apr-10 08:20N 51°38' E 002°56'0 0.1
2014-Apr-10 07:32N 51°38' E 002°56'6 6.1
2014-Apr-10 06:33N 51°32' E 002°53'1918.8
2014-Apr-10 05:34N 51°14' E 002°56'0 0.2
2014-Apr-10 04:34N 51°14' E 002°55'0 0.0
2014-Apr-09 16:33N 51°14' E 002°55'5 5.2
2014-Apr-09 15:34N 51°19' E 002°54'2018.3
2014-Apr-09 14:30N 51°38' E 002°55'0 0.5
2014-Apr-09 13:33N 51°39' E 002°55'  

Dump ship's entire track history

sailing weather and tide predictions

Mpi Rosinante — 2CPD4 — position and weather